createdAt,value
2019-04-26T00:01:03.078Z,99766.80
2019-04-26T00:03:36.245Z,99746.92
2019-04-26T00:06:02.978Z,99753.55
2019-04-26T00:08:29.693Z,99760.16
2019-04-26T00:11:06.174Z,99758.06
2019-04-26T00:13:38.691Z,99749.73
2019-04-26T00:16:12.670Z,99752.89
2019-04-26T00:18:39.520Z,99748.61
2019-04-26T00:21:05.774Z,99744.22
2019-04-26T00:23:32.522Z,99748.12
2019-04-26T00:25:59.261Z,99756.67
2019-04-26T00:28:26.011Z,99766.13
2019-04-26T00:30:52.725Z,99767.04
2019-04-26T00:33:19.499Z,99760.13
2019-04-26T00:35:47.725Z,99755.23
2019-04-26T00:38:14.145Z,99767.55
2019-04-26T00:40:39.755Z,99780.00
2019-04-26T00:43:06.486Z,99775.75
2019-04-26T00:45:33.230Z,99776.67
2019-04-26T00:48:00.154Z,99777.78
2019-04-26T00:50:26.887Z,99760.58
2019-04-26T00:52:53.652Z,99762.81
2019-04-26T00:55:20.355Z,99778.14
2019-04-26T00:57:47.093Z,99779.80
2019-04-26T01:00:13.855Z,99794.09
2019-04-26T01:02:43.522Z,99800.67
2019-04-26T01:05:10.255Z,99796.40
2019-04-26T01:07:37.834Z,99794.94
2019-04-26T01:10:04.575Z,99803.19
2019-04-26T01:12:31.403Z,99804.08
2019-04-26T01:14:58.117Z,99806.52
2019-04-26T01:17:24.905Z,99818.52
2019-04-26T01:19:52.195Z,99801.98
2019-04-26T01:22:21.228Z,99805.13
2019-04-26T01:24:47.502Z,99808.15
2019-04-26T01:27:14.250Z,99806.28
2019-04-26T01:29:41.001Z,99801.41
2019-04-26T01:32:08.906Z,99779.09
2019-04-26T01:34:35.762Z,99780.72
2019-04-26T01:37:02.561Z,99795.23
2019-04-26T01:39:29.573Z,99801.92
2019-04-26T01:42:04.449Z,99816.77
2019-04-26T01:44:51.618Z,99827.68
2019-04-26T01:47:18.333Z,99828.88
2019-04-26T01:49:45.070Z,99823.34
2019-04-26T01:52:11.785Z,99828.71
2019-04-26T01:54:39.599Z,99838.30
2019-04-26T01:57:06.353Z,99838.25
2019-04-26T01:59:33.098Z,99827.63
2019-04-26T02:02:21.328Z,99827.02
2019-04-26T02:04:48.236Z,99813.86
2019-04-26T02:07:15.834Z,99819.27
2019-04-26T02:09:42.578Z,99837.64
2019-04-26T02:12:09.311Z,99836.13
2019-04-26T02:17:15.416Z,99851.37
2019-04-26T02:19:44.054Z,99846.81
2019-04-26T02:22:21.523Z,99832.49
2019-04-26T02:24:48.579Z,99825.36
2019-04-26T02:27:28.558Z,99833.64
2019-04-26T02:29:55.698Z,99833.48
2019-04-26T02:32:22.427Z,99824.53
2019-04-26T02:34:49.167Z,99823.72
2019-04-26T02:37:15.900Z,99831.86
2019-04-26T02:39:42.647Z,99841.28
2019-04-26T02:42:20.487Z,99842.57
2019-04-26T02:44:52.446Z,99845.95
2019-04-26T02:47:30.435Z,99841.07
2019-04-26T02:49:55.539Z,99826.81
2019-04-26T02:52:29.757Z,99827.30
2019-04-26T02:55:00.671Z,99840.80
2019-04-26T02:57:46.155Z,99832.98
2019-04-26T03:00:13.122Z,99829.45
2019-04-26T03:02:40.509Z,99822.95
2019-04-26T03:05:07.621Z,99822.95
2019-04-26T03:07:43.142Z,99821.21
2019-04-26T03:10:09.876Z,99820.56
2019-04-26T03:12:37.586Z,99819.13
2019-04-26T03:15:19.419Z,99820.30
2019-04-26T03:17:56.930Z,99809.87
2019-04-26T03:20:29.117Z,99812.95
2019-04-26T03:23:08.845Z,99813.27
2019-04-26T03:25:40.634Z,99807.60
2019-04-26T03:28:13.206Z,99810.53
2019-04-26T03:30:52.306Z,99818.36
2019-04-26T03:33:52.528Z,99827.15
2019-04-26T03:36:28.353Z,99839.53
2019-04-26T03:39:06.368Z,99845.70
2019-04-26T03:42:00.579Z,99845.03
2019-04-26T03:44:33.044Z,99840.23
2019-04-26T03:47:00.094Z,99841.98
2019-04-26T03:49:54.543Z,99846.69
2019-04-26T03:52:37.027Z,99854.80
2019-04-26T03:55:01.543Z,99874.61
2019-04-26T03:57:40.748Z,99880.97
2019-04-26T04:00:15.653Z,99880.63
2019-04-26T04:02:53.624Z,99883.27
2019-04-26T04:05:26.951Z,99887.30
2019-04-26T04:07:53.668Z,99889.42
2019-04-26T04:10:21.395Z,99891.96
2019-04-26T04:12:55.580Z,99888.86
2019-04-26T04:15:26.221Z,99894.61
2019-04-26T04:17:56.823Z,99893.37
2019-04-26T04:20:40.382Z,99901.75
2019-04-26T04:23:13.534Z,99894.81
2019-04-26T04:25:43.782Z,99887.05
2019-04-26T04:28:17.731Z,99884.16
2019-04-26T04:30:53.754Z,99881.31
2019-04-26T04:33:27.843Z,99882.97
2019-04-26T04:35:55.515Z,99894.80
2019-04-26T04:38:30.430Z,99902.67
2019-04-26T04:41:08.409Z,99910.53
2019-04-26T04:43:38.546Z,99923.09
2019-04-26T04:46:18.337Z,99932.25
2019-04-26T04:49:13.199Z,99937.84
2019-04-26T04:51:48.542Z,99940.73
2019-04-26T04:54:17.265Z,99949.02
2019-04-26T04:56:52.695Z,99957.41
2019-04-26T04:59:23.417Z,99964.01
2019-04-26T05:02:02.314Z,99968.47
2019-04-26T05:04:33.882Z,99986.46
2019-04-26T05:07:16.098Z,99994.98
2019-04-26T05:09:50.162Z,99991.50
2019-04-26T05:12:20.850Z,99991.80
2019-04-26T05:15:06.738Z,99995.55
2019-04-26T05:17:43.514Z,99993.77
2019-04-26T05:20:19.154Z,99988.13
2019-04-26T05:23:13.106Z,99980.34
2019-04-26T05:26:12.757Z,99992.16
2019-04-26T05:28:47.564Z,99991.56
2019-04-26T05:31:28.226Z,100000.02
2019-04-26T05:34:04.510Z,99998.36
2019-04-26T05:36:54.784Z,99989.23
2019-04-26T05:39:24.086Z,100002.55
2019-04-26T05:42:02.201Z,100013.50
2019-04-26T05:44:38.976Z,100023.59
2019-04-26T05:47:21.870Z,100024.45
2019-04-26T05:50:08.738Z,100028.83
2019-04-26T05:52:55.503Z,100028.45
2019-04-26T05:55:38.414Z,100015.69
2019-04-26T05:58:22.398Z,100010.20
2019-04-26T06:01:28.016Z,100015.50
2019-04-26T06:04:21.361Z,100026.59
2019-04-26T06:06:57.467Z,100039.16
2019-04-26T06:09:37.439Z,100025.93
2019-04-26T06:12:12.438Z,100040.28
2019-04-26T06:14:48.598Z,100046.71
2019-04-26T06:17:37.558Z,100054.91
2019-04-26T06:20:22.773Z,100056.81
2019-04-26T06:22:48.606Z,100056.00
2019-04-26T06:25:32.081Z,100060.14
2019-04-26T06:28:02.652Z,100068.59
2019-04-26T06:30:45.214Z,100073.38
2019-04-26T06:33:13.332Z,100076.60
2019-04-26T06:35:40.400Z,100079.00
2019-04-26T06:38:45.482Z,100085.17
2019-04-26T06:41:22.767Z,100083.95
2019-04-26T06:43:49.638Z,100079.12
2019-04-26T06:46:38.141Z,100089.58
2019-04-26T06:49:17.907Z,100089.43
2019-04-26T06:51:47.724Z,100090.08
2019-04-26T06:54:17.742Z,100086.75
2019-04-26T06:57:12.686Z,100094.13
2019-04-26T06:59:54.284Z,100096.50
2019-04-26T07:02:24.570Z,100106.26
2019-04-26T07:05:04.771Z,100105.42
2019-04-26T07:07:46.535Z,100096.77
2019-04-26T07:10:40.070Z,100101.46
2019-04-26T07:13:24.246Z,100106.01
2019-04-26T07:16:22.020Z,100104.70
2019-04-26T07:19:02.129Z,100106.80
2019-04-26T07:21:39.230Z,100104.68
2019-04-26T07:24:27.670Z,100106.46
2019-04-26T07:27:03.142Z,100115.45
2019-04-26T07:29:39.291Z,100116.34
2019-04-26T07:32:15.159Z,100116.29
2019-04-26T07:34:48.726Z,100116.65
2019-04-26T07:37:38.118Z,100122.16
2019-04-26T07:40:23.024Z,100124.53
2019-04-26T07:43:08.167Z,100131.94
2019-04-26T07:46:01.353Z,100131.56
2019-04-26T07:48:34.418Z,100134.80
2019-04-26T07:51:29.674Z,100146.22
2019-04-26T07:54:08.916Z,100148.63
2019-04-26T07:56:46.254Z,100152.91
2019-04-26T07:59:53.474Z,100161.53
2019-04-26T08:02:42.513Z,100168.91
2019-04-26T08:05:14.034Z,100167.70
2019-04-26T08:07:41.262Z,100173.02
2019-04-26T08:10:12.343Z,100169.05
2019-04-26T08:12:38.270Z,100168.75
2019-04-26T08:15:24.815Z,100167.19
2019-04-26T08:17:55.665Z,100172.87
2019-04-26T08:20:32.007Z,100176.88
2019-04-26T08:22:58.402Z,100163.44
2019-04-26T08:25:25.175Z,100167.31
2019-04-26T08:27:51.970Z,100167.61
2019-04-26T08:30:19.384Z,100168.78
2019-04-26T08:32:49.650Z,100160.78
2019-04-26T08:35:21.980Z,100167.03
2019-04-26T08:37:50.979Z,100175.38
2019-04-26T08:40:25.562Z,100184.17
2019-04-26T08:42:53.373Z,100192.12
2019-04-26T08:45:25.558Z,100189.22
2019-04-26T08:47:58.113Z,100171.24
2019-04-26T08:50:31.746Z,100172.63
2019-04-26T08:52:58.873Z,100181.19
2019-04-26T08:55:25.621Z,100190.48
2019-04-26T08:57:52.375Z,100192.05
2019-04-26T09:00:28.012Z,100190.89
2019-04-26T09:03:10.925Z,100195.06
2019-04-26T09:05:49.922Z,100199.24
2019-04-26T09:08:14.950Z,100193.72
2019-04-26T09:10:43.311Z,100200.20
2019-04-26T09:13:08.584Z,100197.58
2019-04-26T09:15:47.322Z,100198.35
2019-04-26T09:18:14.055Z,100209.76
2019-04-26T09:20:42.925Z,100207.39
2019-04-26T09:23:13.382Z,100203.93
2019-04-26T09:25:44.674Z,100200.03
2019-04-26T09:28:18.048Z,100204.56
2019-04-26T09:30:54.791Z,100212.44
2019-04-26T09:33:31.844Z,100220.05
2019-04-26T09:35:55.900Z,100221.31
2019-04-26T09:38:22.625Z,100223.65
2019-04-26T09:40:52.613Z,100229.63
2019-04-26T09:43:35.756Z,100231.89
2019-04-26T09:46:22.974Z,100232.53
2019-04-26T09:48:57.718Z,100229.80
2019-04-26T09:51:24.466Z,100220.41
2019-04-26T09:53:51.234Z,100229.64
2019-04-26T09:56:17.990Z,100222.76
2019-04-26T09:58:44.726Z,100225.95
2019-04-26T10:01:11.563Z,100238.11
2019-04-26T10:03:38.328Z,100233.50
2019-04-26T10:06:07.986Z,100228.86
2019-04-26T10:08:31.801Z,100227.52
2019-04-26T10:10:58.530Z,100223.58
2019-04-26T10:13:33.017Z,100214.17
2019-04-26T10:16:25.381Z,100195.00
2019-04-26T10:18:58.312Z,100190.59
2019-04-26T10:21:22.701Z,100194.60
2019-04-26T10:23:49.466Z,100191.73
2019-04-26T10:26:16.198Z,100192.67
2019-04-26T10:28:42.975Z,100201.48
2019-04-26T10:31:09.686Z,100195.64
2019-04-26T10:33:36.777Z,100196.98
2019-04-26T10:36:03.182Z,100189.40
2019-04-26T10:38:29.922Z,100203.34
2019-04-26T10:40:56.655Z,100195.78
2019-04-26T10:43:23.386Z,100211.33
2019-04-26T10:45:54.059Z,100206.47
2019-04-26T10:48:16.920Z,100196.30
2019-04-26T10:50:43.634Z,100199.89
2019-04-26T10:53:15.358Z,100198.44
2019-04-26T10:56:01.690Z,100207.29
2019-04-26T10:58:36.335Z,100208.03
2019-04-26T11:01:00.708Z,100208.47
2019-04-26T11:03:27.449Z,100221.32
2019-04-26T11:05:55.327Z,100212.48
2019-04-26T11:08:20.989Z,100219.87
2019-04-26T11:10:48.740Z,100218.81
2019-04-26T11:13:14.454Z,100221.11
2019-04-26T11:15:41.183Z,100222.03
2019-04-26T11:18:07.922Z,100222.41
2019-04-26T11:20:34.635Z,100222.83
2019-04-26T11:23:01.390Z,100216.33
2019-04-26T11:25:29.413Z,100210.41
2019-04-26T11:27:54.857Z,100217.20
2019-04-26T11:30:21.618Z,100219.80
2019-04-26T11:32:48.301Z,100223.95
2019-04-26T11:35:15.050Z,100227.79
2019-04-26T11:37:41.846Z,100234.97
2019-04-26T11:40:10.227Z,100232.13
2019-04-26T11:42:35.230Z,100232.45
2019-04-26T11:45:06.395Z,100237.75
2019-04-26T11:47:28.702Z,100232.72
2019-04-26T11:49:55.467Z,100235.77
2019-04-26T11:52:22.160Z,100239.03
2019-04-26T11:54:51.344Z,100240.00
2019-04-26T11:57:15.637Z,100250.75
2019-04-26T11:59:42.506Z,100239.83
2019-04-26T12:02:12.359Z,100245.32
2019-04-26T12:04:55.598Z,100242.85
2019-04-26T12:07:28.238Z,100250.03
2019-04-26T12:09:56.319Z,100245.98
2019-04-26T12:12:23.051Z,100252.61
2019-04-26T12:14:49.787Z,100253.45
2019-04-26T12:17:16.507Z,100255.27
2019-04-26T12:19:43.871Z,100256.14
2019-04-26T12:22:10.594Z,100259.25
2019-04-26T12:24:37.334Z,100258.19
2019-04-26T12:27:04.093Z,100259.41
2019-04-26T12:29:30.919Z,100259.42
2019-04-26T12:31:57.695Z,100242.08
2019-04-26T12:34:24.427Z,100236.34
2019-04-26T12:36:51.166Z,100233.33
2019-04-26T12:39:17.910Z,100232.69
2019-04-26T12:41:44.655Z,100233.94
2019-04-26T12:44:11.406Z,100235.12
2019-04-26T12:46:43.238Z,100233.28
2019-04-26T12:49:09.986Z,100243.73
2019-04-26T12:51:38.312Z,100245.19
2019-04-26T12:54:03.937Z,100250.83
2019-04-26T12:56:31.209Z,100250.77
2019-04-26T12:58:56.966Z,100257.63
2019-04-26T13:01:23.699Z,100255.78
2019-04-26T13:03:58.967Z,100252.31
2019-04-26T13:06:22.922Z,100251.70
2019-04-26T13:08:51.518Z,100258.23
2019-04-26T13:11:48.759Z,100258.61
2019-04-26T13:14:16.720Z,100257.39
2019-04-26T13:16:52.757Z,100261.76
2019-04-26T13:19:19.997Z,100267.87
2019-04-26T13:21:46.302Z,100276.00
2019-04-26T13:24:13.062Z,100273.09
2019-04-26T13:26:39.782Z,100265.13
2019-04-26T13:29:06.604Z,100272.20
2019-04-26T13:31:33.383Z,100273.72
2019-04-26T13:34:02.860Z,100274.00
2019-04-26T13:36:29.130Z,100282.23
2019-04-26T13:38:53.735Z,100285.42
2019-04-26T13:41:20.470Z,100286.03
2019-04-26T13:43:47.209Z,100282.31
2019-04-26T13:46:37.452Z,100284.72
2019-04-26T13:49:23.786Z,100287.64
2019-04-26T13:51:50.794Z,100282.75
2019-04-26T13:54:21.069Z,100288.03
2019-04-26T13:56:44.432Z,100291.53
2019-04-26T13:59:11.230Z,100287.87
2019-04-26T14:01:37.986Z,100287.19
2019-04-26T14:04:06.875Z,100278.15
2019-04-26T14:06:31.557Z,100277.19
2019-04-26T14:09:02.785Z,100279.38
2019-04-26T14:11:28.185Z,100272.20
2019-04-26T14:13:55.408Z,100268.25
2019-04-26T14:16:21.111Z,100263.35
2019-04-26T14:18:45.458Z,100266.78
2019-04-26T14:21:12.493Z,100272.33
2019-04-26T14:24:01.741Z,100265.97
2019-04-26T14:26:35.344Z,100276.28
2019-04-26T14:29:01.497Z,100289.88
2019-04-26T14:31:28.242Z,100296.95
2019-04-26T14:33:54.973Z,100287.02
2019-04-26T14:36:22.650Z,100271.02
2019-04-26T14:38:48.564Z,100265.88
2019-04-26T14:41:21.759Z,100276.27
2019-04-26T14:43:42.094Z,100277.30
2019-04-26T14:46:10.459Z,100275.29
2019-04-26T14:48:36.512Z,100270.47
2019-04-26T14:51:08.221Z,100274.73
2019-04-26T14:53:32.085Z,100269.09
2019-04-26T14:55:56.048Z,100262.70
2019-04-26T14:58:29.853Z,100262.52
2019-04-26T15:00:51.523Z,100258.83
2019-04-26T15:03:25.245Z,100261.13
2019-04-26T15:06:05.479Z,100256.20
2019-04-26T15:08:34.146Z,100253.16
2019-04-26T15:11:01.168Z,100263.03
2019-04-26T15:13:25.797Z,100257.55
2019-04-26T15:15:52.690Z,100263.56
2019-04-26T15:18:19.349Z,100257.05
2019-04-26T15:20:46.171Z,100263.91
2019-04-26T15:23:13.286Z,100266.73
2019-04-26T15:25:41.320Z,100278.23
2019-04-26T15:28:06.999Z,100271.18
2019-04-26T15:30:34.303Z,100271.66
2019-04-26T15:33:03.008Z,100262.53
2019-04-26T15:35:28.279Z,100268.98
2019-04-26T15:37:53.598Z,100276.30
2019-04-26T15:40:35.064Z,100268.83
2019-04-26T15:43:14.258Z,100270.87
2019-04-26T15:45:42.422Z,100275.29
2019-04-26T15:48:21.536Z,100274.66
2019-04-26T15:50:50.518Z,100279.82
2019-04-26T15:53:14.768Z,100280.42
2019-04-26T15:55:41.939Z,100278.69
2019-04-26T15:58:08.555Z,100283.61
2019-04-26T16:00:35.450Z,100277.45
2019-04-26T16:03:03.805Z,100282.61
2019-04-26T16:05:29.683Z,100284.60
2019-04-26T16:07:57.297Z,100284.85
2019-04-26T16:10:25.631Z,100283.44
2019-04-26T16:12:48.302Z,100283.44
2019-04-26T16:15:15.041Z,100279.01
2019-04-26T16:17:41.786Z,100274.86
2019-04-26T16:20:08.522Z,100275.60
2019-04-26T16:22:35.271Z,100268.38
2019-04-26T16:25:05.208Z,100266.12
2019-04-26T16:27:32.409Z,100264.73
2019-04-26T16:30:02.534Z,100262.46
2019-04-26T16:32:43.228Z,100264.91
2019-04-26T16:35:09.510Z,100271.20
2019-04-26T16:37:36.271Z,100272.03
2019-04-26T16:40:03.586Z,100275.88
2019-04-26T16:42:30.381Z,100290.66
2019-04-26T16:45:04.116Z,100283.16
2019-04-26T16:47:23.894Z,100275.56
2019-04-26T16:49:52.352Z,100280.89
2019-04-26T16:52:17.397Z,100282.55
2019-04-26T16:54:44.184Z,100279.30
2019-04-26T16:57:12.218Z,100283.34
2019-04-26T16:59:37.790Z,100289.27
2019-04-26T17:02:04.549Z,100287.59
2019-04-26T17:04:33.054Z,100284.69
2019-04-26T17:07:01.973Z,100288.11
2019-04-26T17:09:29.664Z,100292.62
2019-04-26T17:11:52.417Z,100293.97
2019-04-26T17:14:18.480Z,100295.33
2019-04-26T17:16:45.346Z,100286.83
2019-04-26T17:19:13.631Z,100288.59
2019-04-26T17:21:43.735Z,100287.33
2019-04-26T17:24:18.815Z,100298.61
2019-04-26T17:26:50.566Z,100304.84
2019-04-26T17:29:17.438Z,100293.88
2019-04-26T17:31:44.163Z,100302.17
2019-04-26T17:34:12.568Z,100309.07
2019-04-26T17:36:37.674Z,100301.59
2019-04-26T17:39:06.017Z,100296.04
2019-04-26T17:41:33.349Z,100295.72
2019-04-26T17:44:07.982Z,100293.07
2019-04-26T17:46:26.215Z,100294.41
2019-04-26T17:48:52.957Z,100291.63
2019-04-26T17:51:22.992Z,100296.69
2019-04-26T17:53:47.954Z,100296.36
2019-04-26T17:56:13.601Z,100302.90
2019-04-26T17:58:51.159Z,100297.34
2019-04-26T18:01:06.827Z,100296.36
2019-04-26T18:03:33.604Z,100303.21
2019-04-26T18:06:01.062Z,100310.42
2019-04-26T18:08:40.939Z,100307.12
2019-04-26T18:10:53.835Z,100308.45
2019-04-26T18:13:20.634Z,100314.52
2019-04-26T18:15:48.635Z,100315.43
2019-04-26T18:18:35.677Z,100323.27
2019-04-26T18:21:23.026Z,100321.47
2019-04-26T18:23:54.366Z,100318.75
2019-04-26T18:26:17.410Z,100325.36
2019-04-26T18:28:49.389Z,100322.67
2019-04-26T18:31:10.022Z,100318.89
2019-04-26T18:33:36.754Z,100326.05
2019-04-26T18:36:04.468Z,100327.89
2019-04-26T18:38:30.270Z,100331.69
2019-04-26T18:41:01.138Z,100328.55
2019-04-26T18:43:24.407Z,100334.79
2019-04-26T18:45:50.546Z,100322.12
2019-04-26T18:48:17.382Z,100327.02
2019-04-26T18:50:45.721Z,100324.89
2019-04-26T18:53:30.546Z,100322.98
2019-04-26T18:55:54.552Z,100325.85
2019-04-26T18:58:21.278Z,100328.05
2019-04-26T19:00:48.063Z,100330.22
2019-04-26T19:03:16.105Z,100329.00
2019-04-26T19:05:43.120Z,100334.16
2019-04-26T19:08:09.956Z,100334.31
2019-04-26T19:10:35.074Z,100338.39
2019-04-26T19:13:08.708Z,100337.66
2019-04-26T19:15:44.771Z,100336.45
2019-04-26T19:18:15.786Z,100342.14
2019-04-26T19:20:49.418Z,100340.30
2019-04-26T19:23:16.141Z,100345.41
2019-04-26T19:25:42.922Z,100348.50
2019-04-26T19:28:09.651Z,100352.31
2019-04-26T19:30:39.991Z,100349.04
2019-04-26T19:33:03.461Z,100343.42
2019-04-26T19:35:30.222Z,100338.27
2019-04-26T19:37:56.951Z,100340.19
2019-04-26T19:40:23.673Z,100341.84
2019-04-26T19:42:55.348Z,100345.59
2019-04-26T19:45:28.177Z,100338.05
2019-04-26T19:47:59.602Z,100343.03
2019-04-26T19:50:48.756Z,100342.99
2019-04-26T19:53:21.140Z,100343.46
2019-04-26T19:55:54.944Z,100348.70
2019-04-26T19:58:22.788Z,100344.78
2019-04-26T20:00:48.838Z,100341.89
2019-04-26T20:03:16.859Z,100350.55
2019-04-26T20:05:44.147Z,100356.95
2019-04-26T20:08:09.193Z,100348.95
2019-04-26T20:10:40.486Z,100354.03
2019-04-26T20:13:02.691Z,100355.93
2019-04-26T20:15:29.414Z,100356.02
2019-04-26T20:17:59.496Z,100356.31
2019-04-26T20:20:23.786Z,100352.97
2019-04-26T20:22:51.394Z,100359.47
2019-04-26T20:25:16.361Z,100361.40
2019-04-26T20:27:43.118Z,100360.39
2019-04-26T20:30:12.568Z,100359.72
2019-04-26T20:32:41.989Z,100365.94
2019-04-26T20:35:14.683Z,100363.03
2019-04-26T20:37:44.870Z,100363.63
2019-04-26T20:40:18.510Z,100365.30
2019-04-26T20:42:35.245Z,100374.75
2019-04-26T20:45:04.393Z,100370.77
2019-04-26T20:47:28.718Z,100375.97
2019-04-26T20:50:01.266Z,100372.92
2019-04-26T20:52:24.870Z,100380.20
2019-04-26T20:54:51.088Z,100372.40
2019-04-26T20:57:15.639Z,100373.67
2019-04-26T20:59:43.366Z,100378.65
2019-04-26T21:02:09.373Z,100383.19
2019-04-26T21:04:38.483Z,100375.38
2019-04-26T21:07:06.716Z,100384.44
2019-04-26T21:09:29.562Z,100377.77
2019-04-26T21:11:56.338Z,100383.86
2019-04-26T21:14:23.152Z,100387.66
2019-04-26T21:16:50.599Z,100382.30
2019-04-26T21:19:19.152Z,100383.16
2019-04-26T21:21:48.506Z,100382.70
2019-04-26T21:24:13.393Z,100379.09
2019-04-26T21:26:52.799Z,100379.77
2019-04-26T21:29:31.943Z,100384.12
2019-04-26T21:32:05.140Z,100388.52
2019-04-26T21:34:34.783Z,100378.06
2019-04-26T21:37:22.914Z,100387.51
2019-04-26T21:39:59.777Z,100388.47
2019-04-26T21:42:26.514Z,100392.02
2019-04-26T21:44:54.863Z,100388.73
2019-04-26T21:47:20.036Z,100393.56
2019-04-26T21:49:46.761Z,100389.55
2019-04-26T21:52:13.776Z,100389.36
2019-04-26T21:54:40.350Z,100387.67
2019-04-26T21:57:07.093Z,100394.89
2019-04-26T21:59:40.631Z,100396.84
2019-04-26T22:02:00.579Z,100393.55
2019-04-26T22:04:28.846Z,100397.45
2019-04-26T22:06:55.680Z,100403.08
2019-04-26T22:09:34.950Z,100403.05
2019-04-26T22:11:57.430Z,100402.37
2019-04-26T22:14:26.703Z,100402.09
2019-04-26T22:17:02.098Z,100404.91
2019-04-26T22:19:49.410Z,100396.59
2019-04-26T22:22:21.149Z,100395.63
2019-04-26T22:24:48.839Z,100396.55
2019-04-26T22:27:17.385Z,100395.05
2019-04-26T22:29:43.630Z,100399.43
2019-04-26T22:32:11.551Z,100397.66
2019-04-26T22:34:37.305Z,100401.83
2019-04-26T22:37:11.085Z,100405.84
2019-04-26T22:39:32.738Z,100408.00
2019-04-26T22:41:58.414Z,100401.31
2019-04-26T22:44:31.421Z,100406.55
2019-04-26T22:47:05.633Z,100403.33
2019-04-26T22:49:34.978Z,100407.22
2019-04-26T22:51:59.098Z,100402.90
2019-04-26T22:54:25.835Z,100404.09
2019-04-26T22:56:53.814Z,100404.23
2019-04-26T22:59:19.314Z,100407.36
2019-04-26T23:01:48.773Z,100410.49
2019-04-26T23:04:16.196Z,100408.98
2019-04-26T23:06:42.457Z,100403.30
2019-04-26T23:09:07.351Z,100399.88
2019-04-26T23:11:33.478Z,100401.86
2019-04-26T23:14:11.514Z,100400.09
2019-04-26T23:17:01.707Z,100403.50
2019-04-26T23:19:24.849Z,100408.53
2019-04-26T23:21:54.358Z,100402.98
2019-04-26T23:24:18.998Z,100400.17
2019-04-26T23:26:45.292Z,100396.27
2019-04-26T23:29:16.267Z,100397.86
2019-04-26T23:31:41.613Z,100401.14
2019-04-26T23:34:05.086Z,100395.86
2019-04-26T23:36:31.832Z,100392.98
2019-04-26T23:38:58.662Z,100394.59
2019-04-26T23:41:25.402Z,100396.78
2019-04-26T23:43:56.785Z,100395.27
2019-04-26T23:46:22.304Z,100393.32
2019-04-26T23:48:48.825Z,100385.17
2019-04-26T23:51:12.401Z,100386.27
2019-04-26T23:53:39.167Z,100382.91
2019-04-26T23:56:05.886Z,100385.34
2019-04-26T23:58:32.631Z,100387.73
